createdAt,value
2019-05-26T00:01:32.957Z,14.40
2019-05-26T00:04:00.471Z,13.70
2019-05-26T00:06:27.896Z,14.80
2019-05-26T00:09:14.768Z,14.70
2019-05-26T00:11:44.342Z,14.80
2019-05-26T00:14:12.272Z,14.70
2019-05-26T00:16:40.042Z,13.80
2019-05-26T00:19:08.581Z,14.70
2019-05-26T00:21:36.671Z,14.80
2019-05-26T00:24:23.985Z,14.80
2019-05-26T00:26:51.451Z,14.80
2019-05-26T00:29:18.912Z,14.70
2019-05-26T00:31:46.922Z,13.40
2019-05-26T00:34:15.107Z,14.90
2019-05-26T00:36:42.482Z,14.80
2019-05-26T00:39:09.946Z,14.80
2019-05-26T00:41:37.412Z,14.90
2019-05-26T00:44:24.292Z,13.50
2019-05-26T00:46:51.946Z,14.70
2019-05-26T00:49:19.517Z,14.80
2019-05-26T00:51:47.363Z,14.40
2019-05-26T00:54:14.876Z,14.80
2019-05-26T00:56:42.312Z,15.50
2019-05-26T00:59:10.262Z,14.70
2019-05-26T01:01:38.195Z,14.90
2019-05-26T01:04:05.656Z,14.90
2019-05-26T01:06:52.464Z,13.60
2019-05-26T01:09:19.969Z,15.00
2019-05-26T01:11:47.721Z,14.90
2019-05-26T01:14:15.821Z,14.80
2019-05-26T01:16:43.553Z,15.10
2019-05-26T01:19:11.064Z,14.50
2019-05-26T01:21:38.666Z,15.70
2019-05-26T01:24:25.715Z,14.80
2019-05-26T01:26:53.230Z,14.80
2019-05-26T01:29:21.170Z,14.90
2019-05-26T01:31:51.787Z,14.00
2019-05-26T01:34:19.666Z,14.90
2019-05-26T01:36:47.411Z,14.40
2019-05-26T01:39:34.571Z,14.90
2019-05-26T01:42:02.079Z,15.00
2019-05-26T01:44:29.541Z,14.90
2019-05-26T01:46:57.049Z,15.10
2019-05-26T01:49:24.942Z,14.90
2019-05-26T01:51:52.824Z,15.00
2019-05-26T01:54:20.279Z,15.00
2019-05-26T01:56:47.755Z,14.90
2019-05-26T01:59:15.683Z,14.90
2019-05-26T02:01:43.545Z,14.90
2019-05-26T02:04:10.983Z,14.90
2019-05-26T02:06:58.023Z,14.70
2019-05-26T02:09:25.502Z,14.90
2019-05-26T02:11:52.905Z,15.00
2019-05-26T02:14:20.893Z,14.90
2019-05-26T02:16:48.894Z,14.90
2019-05-26T02:19:16.352Z,15.20
2019-05-26T02:21:44.126Z,15.00
2019-05-26T02:24:12.093Z,14.90
2019-05-26T02:26:39.591Z,14.50
2019-05-26T02:29:07.110Z,14.10
2019-05-26T02:31:34.569Z,15.60
2019-05-26T02:34:02.452Z,14.60
2019-05-26T02:36:30.307Z,14.90
2019-05-26T02:39:02.851Z,15.00
2019-05-26T02:41:27.595Z,14.30
2019-05-26T02:46:52.800Z,15.00
2019-05-26T02:49:20.410Z,14.90
2019-05-26T02:51:47.916Z,15.10
2019-05-26T02:54:15.614Z,15.10
2019-05-26T02:56:43.089Z,15.10
2019-05-26T02:59:11.272Z,15.10
2019-05-26T03:01:58.321Z,15.10
2019-05-26T03:04:08.422Z,15.10
2019-05-26T03:06:55.815Z,15.10
2019-05-26T03:09:43.335Z,15.20
2019-05-26T03:12:11.393Z,15.00
2019-05-26T03:14:39.508Z,15.10
2019-05-26T03:17:06.912Z,15.10
2019-05-26T03:19:35.431Z,15.10
2019-05-26T03:22:03.090Z,14.30
2019-05-26T03:24:30.596Z,15.70
2019-05-26T03:26:58.541Z,15.10
2019-05-26T03:29:45.395Z,15.30
2019-05-26T03:32:13.472Z,15.00
2019-05-26T03:34:41.147Z,15.20
2019-05-26T03:37:08.702Z,16.20
2019-05-26T03:39:44.389Z,16.00
2019-05-26T03:42:05.958Z,15.00
2019-05-26T03:44:33.368Z,15.20
2019-05-26T03:47:20.360Z,15.20
2019-05-26T03:49:47.881Z,15.00
2019-05-26T03:52:15.439Z,15.20
2019-05-26T03:55:02.368Z,14.60
2019-05-26T04:00:15.241Z,15.00
2019-05-26T04:03:02.650Z,15.30
2019-05-26T04:05:29.799Z,15.10
2019-05-26T04:07:57.222Z,15.30
2019-05-26T04:10:24.500Z,14.80
2019-05-26T04:12:51.890Z,15.40
2019-05-26T04:15:19.818Z,15.40
2019-05-26T04:17:47.221Z,15.10
2019-05-26T04:20:34.446Z,15.40
2019-05-26T04:25:59.853Z,15.10
2019-05-26T04:31:12.776Z,15.20
2019-05-26T04:33:40.770Z,15.50
2019-05-26T04:36:08.461Z,15.50
2019-05-26T04:38:35.841Z,15.20
2019-05-26T04:41:03.088Z,15.50
2019-05-26T04:43:30.489Z,15.40
2019-05-26T04:45:58.369Z,15.50
2019-05-26T04:48:25.842Z,15.50
2019-05-26T04:50:53.451Z,15.70
2019-05-26T04:53:21.108Z,15.10
2019-05-26T04:58:38.622Z,14.90
2019-05-26T05:01:06.159Z,15.10
2019-05-26T05:03:33.379Z,15.70
2019-05-26T05:06:02.518Z,15.60
2019-05-26T05:08:29.645Z,15.70
2019-05-26T05:10:57.535Z,15.60
2019-05-26T05:13:25.190Z,16.20
2019-05-26T05:15:53.060Z,15.70
2019-05-26T05:18:20.964Z,15.10
2019-05-26T05:20:48.230Z,15.70
2019-05-26T05:23:15.957Z,15.80
2019-05-26T05:25:43.408Z,15.80
2019-05-26T05:28:10.827Z,15.80
2019-05-26T05:30:38.653Z,16.00
2019-05-26T05:33:06.744Z,16.00
2019-05-26T05:35:34.154Z,15.80
2019-05-26T05:38:01.612Z,15.80
2019-05-26T05:40:29.041Z,14.60
2019-05-26T05:42:57.102Z,15.90
2019-05-26T05:45:43.976Z,16.00
2019-05-26T05:48:11.561Z,15.80
2019-05-26T05:50:39.666Z,15.40
2019-05-26T05:53:07.359Z,16.30
2019-05-26T05:55:34.949Z,16.00
2019-05-26T05:58:02.525Z,15.60
2019-05-26T06:00:33.830Z,16.10
2019-05-26T06:03:01.336Z,15.90
2019-05-26T06:05:28.712Z,14.90
2019-05-26T06:07:56.724Z,16.00
2019-05-26T06:10:24.539Z,16.10
2019-05-26T06:12:52.053Z,16.10
2019-05-26T06:15:19.641Z,16.10
2019-05-26T06:17:47.767Z,14.90
2019-05-26T06:20:16.118Z,16.20
2019-05-26T06:22:43.618Z,16.20
2019-05-26T06:25:11.103Z,16.20
2019-05-26T06:27:58.387Z,15.70
2019-05-26T06:30:25.826Z,16.00
2019-05-26T06:32:53.538Z,16.20
2019-05-26T06:35:21.588Z,16.20
2019-05-26T06:37:50.167Z,16.30
2019-05-26T06:40:18.018Z,16.40
2019-05-26T06:42:45.816Z,16.40
2019-05-26T06:45:13.975Z,16.40
2019-05-26T06:47:51.952Z,16.50
2019-05-26T06:50:19.441Z,16.50
2019-05-26T06:52:46.921Z,16.20
2019-05-26T06:55:33.823Z,16.60
2019-05-26T06:58:01.294Z,16.80
2019-05-26T07:00:28.684Z,16.20
2019-05-26T07:02:57.370Z,16.70
2019-05-26T07:05:25.450Z,16.80
2019-05-26T07:08:12.644Z,16.80
2019-05-26T07:10:59.995Z,16.50
2019-05-26T07:13:29.064Z,16.90
2019-05-26T07:15:59.427Z,16.90
2019-05-26T07:18:26.790Z,17.00
2019-05-26T07:21:13.610Z,16.10
2019-05-26T07:24:00.953Z,16.70
2019-05-26T07:26:28.549Z,17.00
2019-05-26T07:28:55.982Z,17.40
2019-05-26T07:31:23.797Z,17.20
2019-05-26T07:33:51.677Z,16.90
2019-05-26T07:36:18.978Z,17.40
2019-05-26T07:38:46.490Z,17.40
2019-05-26T07:41:14.021Z,17.40
2019-05-26T07:43:41.884Z,17.50
2019-05-26T07:46:09.339Z,17.50
2019-05-26T07:48:56.799Z,16.40
2019-05-26T07:51:44.196Z,17.10
2019-05-26T07:54:24.635Z,17.60
2019-05-26T07:56:41.434Z,17.60
2019-05-26T07:59:09.215Z,17.70
2019-05-26T08:01:36.738Z,17.80
2019-05-26T08:04:04.751Z,17.80
2019-05-26T08:06:32.535Z,18.30
2019-05-26T08:08:59.959Z,18.00
2019-05-26T08:11:27.374Z,18.00
2019-05-26T08:13:55.624Z,18.10
2019-05-26T08:16:23.315Z,18.10
2019-05-26T08:18:50.401Z,17.80
2019-05-26T08:21:18.011Z,18.30
2019-05-26T08:23:45.954Z,18.40
2019-05-26T08:26:13.609Z,18.00
2019-05-26T08:28:41.182Z,18.40
2019-05-26T08:31:08.203Z,17.50
2019-05-26T08:33:36.241Z,18.60
2019-05-26T08:36:03.758Z,18.60
2019-05-26T08:38:31.128Z,18.50
2019-05-26T08:41:18.018Z,18.70
2019-05-26T08:43:45.490Z,18.90
2019-05-26T08:46:12.532Z,18.70
2019-05-26T08:48:40.305Z,18.80
2019-05-26T08:51:07.856Z,18.80
2019-05-26T08:53:55.228Z,18.90
2019-05-26T08:56:36.482Z,18.90
2019-05-26T08:59:04.248Z,19.00
2019-05-26T09:01:31.625Z,19.00
2019-05-26T09:03:59.108Z,19.10
2019-05-26T09:06:26.854Z,18.00
2019-05-26T09:08:54.071Z,19.10
2019-05-26T09:11:22.167Z,19.10
2019-05-26T09:14:08.993Z,19.20
2019-05-26T09:16:38.530Z,18.80
2019-05-26T09:19:06.030Z,18.90
2019-05-26T09:21:33.534Z,19.20
2019-05-26T09:24:00.804Z,19.20
2019-05-26T09:26:47.616Z,19.30
2019-05-26T09:29:16.891Z,19.10
2019-05-26T09:31:43.912Z,19.30
2019-05-26T09:34:11.373Z,19.30
2019-05-26T09:36:58.128Z,19.40
2019-05-26T09:39:25.533Z,19.30
2019-05-26T09:41:52.966Z,19.50
2019-05-26T09:44:20.817Z,19.50
2019-05-26T09:47:08.444Z,19.60
2019-05-26T09:49:36.410Z,19.40
2019-05-26T09:52:03.398Z,19.70
2019-05-26T09:54:30.482Z,19.60
2019-05-26T09:56:58.069Z,19.60
2019-05-26T09:59:25.775Z,19.30
2019-05-26T10:01:53.769Z,18.90
2019-05-26T10:04:20.867Z,19.70
2019-05-26T10:06:48.157Z,19.80
2019-05-26T10:09:15.549Z,19.80
2019-05-26T10:11:43.409Z,19.80
2019-05-26T10:14:30.402Z,19.80
2019-05-26T10:19:42.660Z,19.70
2019-05-26T10:22:29.491Z,19.80
2019-05-26T10:24:56.635Z,19.90
2019-05-26T10:27:23.956Z,20.00
2019-05-26T10:29:51.561Z,20.00
2019-05-26T10:32:19.538Z,20.00
2019-05-26T10:35:06.502Z,19.40
2019-05-26T10:37:34.375Z,19.90
2019-05-26T10:40:02.090Z,19.70
2019-05-26T10:42:29.272Z,20.00
2019-05-26T10:44:56.678Z,20.10
2019-05-26T10:47:24.048Z,20.10
2019-05-26T10:49:51.440Z,20.00
2019-05-26T10:52:19.180Z,20.00
2019-05-26T10:54:54.428Z,20.10
2019-05-26T10:57:21.928Z,20.30
2019-05-26T10:59:49.910Z,20.10
2019-05-26T11:02:17.606Z,20.00
2019-05-26T11:04:44.895Z,20.10
2019-05-26T11:07:12.340Z,20.10
2019-05-26T11:09:53.397Z,20.10
2019-05-26T11:15:07.744Z,20.00
2019-05-26T11:17:38.367Z,20.00
2019-05-26T11:20:06.796Z,20.10
2019-05-26T11:22:34.956Z,20.10
2019-05-26T11:25:02.385Z,20.00
2019-05-26T11:27:29.950Z,20.20
2019-05-26T11:29:57.442Z,20.20
2019-05-26T11:32:24.663Z,20.30
2019-05-26T11:36:14.106Z,20.30
2019-05-26T11:37:21.653Z,20.30
2019-05-26T11:39:49.262Z,19.90
2019-05-26T11:42:17.091Z,19.70
2019-05-26T11:45:04.405Z,20.40
2019-05-26T11:47:32.315Z,20.40
2019-05-26T11:50:00.411Z,20.40
2019-05-26T11:52:27.743Z,20.40
2019-05-26T11:54:55.211Z,20.40
2019-05-26T11:57:23.383Z,20.60
2019-05-26T11:59:50.958Z,20.10
2019-05-26T12:02:18.392Z,20.50
2019-05-26T12:05:05.516Z,20.20
2019-05-26T12:07:33.252Z,20.50
2019-05-26T12:10:20.523Z,20.70
2019-05-26T12:12:47.965Z,20.70
2019-05-26T12:15:15.509Z,20.80
2019-05-26T12:17:52.210Z,20.80
2019-05-26T12:20:19.675Z,20.80
2019-05-26T12:22:47.007Z,20.40
2019-05-26T12:25:17.232Z,20.80
2019-05-26T12:27:44.608Z,20.70
2019-05-26T12:30:30.554Z,20.90
2019-05-26T12:33:17.407Z,20.90
2019-05-26T12:35:48.559Z,21.00
2019-05-26T12:38:38.342Z,20.30
2019-05-26T12:41:06.228Z,20.60
2019-05-26T12:43:33.473Z,20.80
2019-05-26T12:46:01.139Z,20.20
2019-05-26T12:48:31.457Z,20.50
2019-05-26T12:51:18.879Z,20.80
2019-05-26T12:53:46.709Z,21.00
2019-05-26T12:56:14.134Z,20.70
2019-05-26T12:58:41.133Z,19.70
2019-05-26T13:01:08.671Z,20.80
2019-05-26T13:03:36.696Z,20.70
2019-05-26T13:06:04.871Z,20.70
2019-05-26T13:09:17.296Z,20.70
2019-05-26T13:11:45.033Z,20.30
2019-05-26T13:14:12.899Z,20.80
2019-05-26T13:16:40.186Z,21.00
2019-05-26T13:19:27.269Z,20.70
2019-05-26T13:21:54.992Z,20.50
2019-05-26T13:24:42.300Z,20.70
2019-05-26T13:27:10.141Z,20.80
2019-05-26T13:29:37.494Z,20.50
2019-05-26T13:32:04.761Z,20.80
2019-05-26T13:34:35.547Z,20.80
2019-05-26T13:37:01.586Z,20.90
2019-05-26T13:39:48.811Z,21.10
2019-05-26T13:42:36.073Z,21.30
2019-05-26T13:45:04.096Z,21.40
2019-05-26T13:47:31.230Z,21.80
2019-05-26T13:49:58.483Z,21.30
2019-05-26T13:52:45.306Z,21.40
2019-05-26T13:55:12.764Z,21.40
2019-05-26T13:57:59.373Z,21.50
2019-05-26T14:00:26.424Z,21.50
2019-05-26T14:02:53.897Z,21.50
2019-05-26T14:05:20.999Z,21.40
2019-05-26T14:08:01.514Z,21.40
2019-05-26T14:10:42.381Z,21.20
2019-05-26T14:13:10.061Z,21.10
2019-05-26T14:15:39.121Z,21.20
2019-05-26T14:18:06.752Z,21.20
2019-05-26T14:20:37.848Z,21.40
2019-05-26T14:23:06.141Z,21.10
2019-05-26T14:25:34.062Z,21.00
2019-05-26T14:28:01.908Z,21.00
2019-05-26T14:30:29.043Z,21.00
2019-05-26T14:33:16.310Z,21.10
2019-05-26T14:35:52.534Z,20.50
2019-05-26T14:38:43.288Z,20.80
2019-05-26T14:41:10.315Z,20.80
2019-05-26T14:43:37.436Z,21.00
2019-05-26T14:46:04.829Z,21.00
2019-05-26T14:48:31.964Z,21.00
2019-05-26T14:50:59.350Z,21.00
2019-05-26T14:53:27.234Z,21.10
2019-05-26T14:56:14.134Z,20.80
2019-05-26T14:58:41.782Z,21.10
2019-05-26T15:01:28.641Z,21.00
2019-05-26T15:04:15.470Z,20.20
2019-05-26T15:06:43.145Z,20.70
2019-05-26T15:09:24.422Z,20.80
2019-05-26T15:11:39.317Z,21.10
2019-05-26T15:14:07.401Z,21.00
2019-05-26T15:16:34.877Z,20.90
2019-05-26T15:19:01.865Z,20.50
2019-05-26T15:21:29.031Z,20.30
2019-05-26T15:24:15.569Z,20.80
2019-05-26T15:26:43.178Z,20.90
2019-05-26T15:29:10.241Z,21.00
2019-05-26T15:31:38.000Z,21.00
2019-05-26T15:34:05.629Z,21.00
2019-05-26T15:36:33.264Z,20.90
2019-05-26T15:39:00.562Z,20.90
2019-05-26T15:41:28.033Z,21.00
2019-05-26T15:43:55.281Z,21.10
2019-05-26T15:46:25.742Z,21.00
2019-05-26T15:48:53.378Z,20.90
2019-05-26T15:51:20.864Z,20.90
2019-05-26T15:53:48.709Z,21.00
2019-05-26T15:56:16.182Z,20.90
2019-05-26T15:58:43.361Z,20.90
2019-05-26T16:01:10.805Z,20.90
2019-05-26T16:03:38.168Z,20.90
2019-05-26T16:06:05.585Z,21.00
2019-05-26T16:08:52.345Z,21.00
2019-05-26T16:11:19.660Z,21.10
2019-05-26T16:13:47.102Z,21.10
2019-05-26T16:16:15.311Z,20.90
2019-05-26T16:18:42.964Z,20.90
2019-05-26T16:21:30.108Z,20.20
2019-05-26T16:23:57.244Z,20.50
2019-05-26T16:26:44.509Z,20.60
2019-05-26T16:29:12.326Z,20.50
2019-05-26T16:31:39.433Z,20.50
2019-05-26T16:34:06.768Z,20.50
2019-05-26T16:36:53.350Z,20.50
2019-05-26T16:39:34.387Z,20.40
2019-05-26T16:41:49.410Z,20.30
2019-05-26T16:44:17.256Z,20.20
2019-05-26T16:46:56.204Z,20.00
2019-05-26T16:49:14.139Z,20.00
2019-05-26T16:51:41.418Z,19.90
2019-05-26T16:54:09.341Z,20.00
2019-05-26T16:56:39.097Z,19.80
2019-05-26T16:59:06.477Z,19.80
2019-05-26T17:01:53.230Z,20.10
2019-05-26T17:04:20.357Z,20.00
2019-05-26T17:06:56.701Z,20.10
2019-05-26T17:09:25.102Z,20.10
2019-05-26T17:11:52.363Z,20.00
2019-05-26T17:14:19.595Z,19.90
2019-05-26T17:16:47.325Z,19.90
2019-05-26T17:19:18.670Z,19.80
2019-05-26T17:21:47.604Z,19.70
2019-05-26T17:24:15.451Z,19.70
2019-05-26T17:26:44.929Z,19.70
2019-05-26T17:29:33.629Z,19.50
2019-05-26T17:32:03.732Z,19.30
2019-05-26T17:34:32.308Z,19.40
2019-05-26T17:37:04.273Z,19.20
2019-05-26T17:39:37.024Z,19.20
2019-05-26T17:42:04.788Z,19.10
2019-05-26T17:44:52.084Z,19.10
2019-05-26T17:47:29.864Z,19.00
2019-05-26T17:49:51.631Z,19.10
2019-05-26T17:52:18.971Z,19.10
2019-05-26T17:54:46.068Z,19.10
2019-05-26T17:57:13.401Z,19.10
2019-05-26T17:59:40.781Z,19.00
2019-05-26T18:02:08.488Z,18.90
2019-05-26T18:04:55.325Z,19.00
2019-05-26T18:07:42.070Z,19.00
2019-05-26T18:10:09.232Z,18.70
2019-05-26T18:12:36.459Z,18.80
2019-05-26T18:15:05.891Z,18.80
2019-05-26T18:17:46.338Z,18.80
2019-05-26T18:20:21.845Z,18.90
2019-05-26T18:22:49.332Z,18.10
2019-05-26T18:25:25.167Z,18.70
2019-05-26T18:28:21.927Z,18.60
2019-05-26T18:30:55.315Z,18.60
2019-05-26T18:33:42.495Z,18.30
2019-05-26T18:36:09.893Z,18.00
2019-05-26T18:38:37.060Z,18.30
2019-05-26T18:41:05.033Z,18.30
2019-05-26T18:43:32.727Z,18.20
2019-05-26T18:46:00.126Z,17.90
2019-05-26T18:48:47.295Z,17.90
2019-05-26T18:51:15.186Z,18.00
2019-05-26T18:53:42.578Z,17.80
2019-05-26T18:56:29.820Z,17.70
2019-05-26T18:58:57.511Z,17.70
2019-05-26T19:01:44.927Z,17.70
2019-05-26T19:04:13.279Z,17.60
2019-05-26T19:06:48.087Z,17.50
2019-05-26T19:09:15.705Z,17.30
2019-05-26T19:11:43.322Z,17.50
2019-05-26T19:14:32.160Z,17.50
2019-05-26T19:16:59.311Z,17.50
2019-05-26T19:19:26.393Z,17.40
2019-05-26T19:21:53.998Z,17.50
2019-05-26T19:24:21.124Z,17.40
2019-05-26T19:27:08.195Z,17.40
2019-05-26T19:29:35.748Z,16.70
2019-05-26T19:32:03.173Z,16.50
2019-05-26T19:34:30.880Z,17.30
2019-05-26T19:37:02.010Z,17.20
2019-05-26T19:39:29.742Z,17.10
2019-05-26T19:41:58.200Z,17.10
2019-05-26T19:44:25.397Z,17.10
2019-05-26T19:46:53.180Z,17.10
2019-05-26T19:49:21.252Z,17.10
2019-05-26T19:51:48.928Z,16.70
2019-05-26T19:54:16.340Z,17.20
2019-05-26T19:56:43.898Z,17.00
2019-05-26T19:59:11.354Z,16.90
2019-05-26T20:01:38.781Z,16.60
2019-05-26T20:04:06.561Z,16.90
2019-05-26T20:06:53.542Z,16.80
2019-05-26T20:09:20.572Z,16.90
2019-05-26T20:11:47.730Z,16.70
2019-05-26T20:14:15.163Z,16.60
2019-05-26T20:16:43.630Z,16.50
2019-05-26T20:19:10.869Z,16.60
2019-05-26T20:21:41.529Z,16.60
2019-05-26T20:24:08.858Z,16.60
2019-05-26T20:26:36.279Z,16.60
2019-05-26T20:29:03.754Z,16.50
2019-05-26T20:31:30.892Z,16.50
2019-05-26T20:33:57.935Z,16.60
2019-05-26T20:36:33.946Z,16.50
2019-05-26T20:39:01.718Z,15.70
2019-05-26T20:41:29.116Z,16.50
2019-05-26T20:44:15.664Z,16.50
2019-05-26T20:46:42.952Z,15.80
2019-05-26T20:49:09.946Z,16.60
2019-05-26T20:51:37.305Z,16.50
2019-05-26T20:54:04.921Z,16.70
2019-05-26T20:56:32.898Z,16.50
2019-05-26T20:59:00.853Z,16.40
2019-05-26T21:01:28.880Z,16.40
2019-05-26T21:03:56.271Z,16.40
2019-05-26T21:06:24.461Z,16.40
2019-05-26T21:08:51.571Z,16.50
2019-05-26T21:11:19.341Z,16.50
2019-05-26T21:13:47.092Z,16.30
2019-05-26T21:16:14.597Z,16.60
2019-05-26T21:18:43.604Z,16.60
2019-05-26T21:21:11.906Z,16.60
2019-05-26T21:23:39.850Z,16.60
2019-05-26T21:26:07.253Z,16.50
2019-05-26T21:28:34.826Z,16.50
2019-05-26T21:31:01.993Z,16.50
2019-05-26T21:33:29.982Z,16.50
2019-05-26T21:35:58.734Z,16.60
2019-05-26T21:38:26.105Z,16.50
2019-05-26T21:40:53.637Z,16.50
2019-05-26T21:43:21.037Z,16.50
2019-05-26T21:45:48.168Z,16.50
2019-05-26T21:48:16.310Z,17.20
2019-05-26T21:50:43.793Z,16.50
2019-05-26T21:53:10.932Z,16.50
2019-05-26T21:55:38.275Z,16.50
2019-05-26T21:58:05.307Z,16.50
2019-05-26T22:00:37.999Z,16.50
2019-05-26T22:03:05.486Z,16.50
2019-05-26T22:05:33.361Z,16.50
2019-05-26T22:08:00.798Z,16.30
2019-05-26T22:10:27.749Z,16.50
2019-05-26T22:12:54.977Z,16.60
2019-05-26T22:15:23.707Z,16.60
2019-05-26T22:17:51.024Z,16.60
2019-05-26T22:20:18.368Z,16.60
2019-05-26T22:22:45.465Z,16.40
2019-05-26T22:25:32.417Z,16.50
2019-05-26T22:28:18.951Z,16.50
2019-05-26T22:31:05.626Z,16.30
2019-05-26T22:33:32.976Z,16.10
2019-05-26T22:36:00.053Z,16.40
2019-05-26T22:38:27.945Z,16.40
2019-05-26T22:41:14.541Z,16.40
2019-05-26T22:43:42.190Z,16.40
2019-05-26T22:46:09.739Z,16.30
2019-05-26T22:48:36.980Z,16.30
2019-05-26T22:51:04.014Z,16.20
2019-05-26T22:53:31.030Z,16.20
2019-05-26T22:55:58.108Z,16.20
2019-05-26T22:58:25.371Z,16.10
2019-05-26T23:00:55.975Z,15.90
2019-05-26T23:03:42.692Z,15.80
2019-05-26T23:06:22.796Z,16.40
2019-05-26T23:08:49.959Z,16.00
2019-05-26T23:11:17.556Z,16.20
2019-05-26T23:14:04.214Z,16.20
2019-05-26T23:16:50.889Z,16.00
2019-05-26T23:19:19.693Z,16.10
2019-05-26T23:21:47.553Z,16.30
2019-05-26T23:24:14.907Z,16.30
2019-05-26T23:26:42.036Z,16.20
2019-05-26T23:29:29.099Z,16.20
2019-05-26T23:32:09.648Z,15.80
2019-05-26T23:37:22.046Z,15.80
2019-05-26T23:39:49.262Z,16.10
2019-05-26T23:42:16.185Z,16.10
2019-05-26T23:44:43.325Z,16.60
2019-05-26T23:47:29.858Z,16.10
2019-05-26T23:49:56.812Z,15.70
2019-05-26T23:52:24.050Z,16.10
2019-05-26T23:54:50.933Z,16.10
2019-05-26T23:57:18.205Z,16.00
2019-05-26T23:59:45.384Z,16.10
